Time;durP1;ratioP1;P1;durP2;ratioP2;P2;SDS_P1;SDS_P2;PMS_P1;PMS_P2;Temp;Humidity;BMP_temperature;BMP_pressure;BME280_temperature;BME280_humidity;BME280_pressure;Samples;Min_cycle;Max_cycle;Signal;HPM_P1;HPM_P2
2022/12/08 00:00:23;;;;;;;0.70;0.70;;;19.90;42.10;;;;;;5092488;28;20576;-9
2022/12/08 00:02:49;;;;;;;0.52;0.52;;;19.90;42.10;;;;;;5092465;28;20059;-9
2022/12/08 00:10:44;;;;;;;0.95;0.68;;;19.90;42.20;;;;;;5092652;28;20048;-9
2022/12/08 00:13:10;;;;;;;0.60;0.60;;;19.80;42.10;;;;;;5092548;28;20052;-9
2022/12/08 00:15:35;;;;;;;0.63;0.50;;;19.80;42.10;;;;;;5092540;28;20066;-9
2022/12/08 00:18:02;;;;;;;1.13;0.60;;;19.90;42.20;;;;;;5092719;28;20063;-9
2022/12/08 00:20:27;;;;;;;0.93;0.75;;;19.80;42.10;;;;;;5092401;28;20554;-9
2022/12/08 00:22:53;;;;;;;0.60;0.60;;;19.90;42.10;;;;;;5092368;28;20051;-9
2022/12/08 00:25:18;;;;;;;0.60;0.60;;;19.90;42.20;;;;;;5092576;28;20059;-9
2022/12/08 00:27:44;;;;;;;0.60;0.60;;;19.90;42.20;;;;;;5092157;28;20052;-9
2022/12/08 00:30:10;;;;;;;1.15;0.70;;;19.90;42.10;;;;;;5091066;28;20052;-9
2022/12/08 00:32:37;;;;;;;1.35;0.77;;;19.80;42.10;;;;;;5092168;28;20056;-9
2022/12/08 00:35:03;;;;;;;0.75;0.60;;;19.80;42.60;;;;;;5092057;28;20063;-9
2022/12/08 00:37:28;;;;;;;0.70;0.70;;;19.90;42.20;;;;;;5091884;28;20093;-10
2022/12/08 00:39:54;;;;;;;0.80;0.80;;;19.80;42.10;;;;;;5092109;28;20051;-9
2022/12/08 00:42:20;;;;;;;0.60;0.60;;;19.80;42.10;;;;;;5092376;28;20089;-9
2022/12/08 00:44:46;;;;;;;0.60;0.60;;;19.90;42.20;;;;;;5092060;28;20048;-9
2022/12/08 00:47:13;;;;;;;0.75;0.60;;;19.90;42.20;;;;;;5092032;28;20048;-9
2022/12/08 00:49:39;;;;;;;0.82;0.68;;;19.90;42.10;;;;;;5092203;28;20052;-9
2022/12/08 00:52:05;;;;;;;1.40;0.60;;;19.90;42.10;;;;;;5092359;28;20048;-9
2022/12/08 00:54:31;;;;;;;0.60;0.60;;;19.80;42.10;;;;;;5091188;28;20421;-9
2022/12/08 00:56:56;;;;;;;0.60;0.60;;;19.90;42.10;;;;;;5091824;28;20052;-10
2022/12/08 00:59:22;;;;;;;0.80;0.80;;;19.80;42.10;;;;;;5091907;28;20048;-9
2022/12/08 01:01:47;;;;;;;1.27;0.70;;;19.90;42.10;;;;;;5091909;28;20059;-9
2022/12/08 01:04:15;;;;;;;1.17;0.60;;;19.80;42.10;;;;;;5091852;28;20052;-9
2022/12/08 01:06:41;;;;;;;0.60;0.60;;;19.80;42.10;;;;;;5091750;28;20397;-9
2022/12/08 01:09:08;;;;;;;0.90;0.80;;;19.80;42.10;;;;;;5091945;28;20052;-9
2022/12/08 01:11:34;;;;;;;0.70;0.70;;;19.90;42.10;;;;;;5091792;28;20052;-9
2022/12/08 01:14:00;;;;;;;0.95;0.70;;;19.90;42.10;;;;;;5093796;28;20478;-9
2022/12/08 01:16:28;;;;;;;0.70;0.70;;;19.80;42.10;;;;;;5095653;28;20052;-9
2022/12/08 01:18:56;;;;;;;1.00;0.80;;;19.80;42.10;;;;;;5095139;28;20104;-9
2022/12/08 01:21:22;;;;;;;0.73;0.73;;;19.90;42.10;;;;;;5095123;28;20044;-9
2022/12/08 01:23:47;;;;;;;0.55;0.55;;;19.90;42.10;;;;;;5095076;28;20057;-9
2022/12/08 01:26:15;;;;;;;0.57;0.52;;;19.80;42.10;;;;;;5094980;28;20419;-9
2022/12/08 01:28:42;;;;;;;0.63;0.60;;;19.80;42.10;;;;;;5095046;28;20454;-9
2022/12/08 01:31:13;;;;;;;0.77;0.77;;;19.90;42.10;;;;;;5094835;28;20158;-9
2022/12/08 01:33:39;;;;;;;;;;;19.80;42.10;;;;;;5095424;28;20052;-9
2022/12/08 01:36:05;;;;;;;0.98;0.65;;;19.80;42.10;;;;;;5095208;28;19923;-9
2022/12/08 01:38:31;;;;;;;1.45;0.65;;;19.80;42.00;;;;;;5094889;28;20127;-9
2022/12/08 01:40:57;;;;;;;0.70;0.50;;;19.90;42.10;;;;;;5095197;28;20048;-9
2022/12/08 01:43:23;;;;;;;0.90;0.80;;;19.90;42.10;;;;;;5094924;28;20051;-9
2022/12/08 01:45:49;;;;;;;0.82;0.65;;;19.90;42.10;;;;;;5094814;28;20047;-9
2022/12/08 01:48:26;;;;;;;0.52;0.52;;;19.90;42.10;;;;;;5095084;28;20131;-9
2022/12/08 01:50:54;;;;;;;1.00;0.82;;;19.90;42.70;;;;;;5094870;28;20052;-9
2022/12/08 01:53:25;;;;;;;0.63;0.63;;;19.90;42.10;;;;;;5094671;28;20508;-9
2022/12/08 01:56:12;;;;;;;0.68;0.60;;;19.90;42.10;;;;;;5094973;28;20135;-9
2022/12/08 01:58:46;;;;;;;0.60;0.60;;;19.80;42.10;;;;;;5094295;28;20048;-10
2022/12/08 02:01:12;;;;;;;0.73;0.68;;;19.80;42.10;;;;;;5094611;28;20052;-9
2022/12/08 02:03:54;;;;;;;0.70;0.70;;;19.80;42.10;;;;;;5094437;28;20055;-9
2022/12/08 02:06:20;;;;;;;0.77;0.70;;;19.80;42.10;;;;;;5094380;28;20071;-9
2022/12/08 02:08:47;;;;;;;0.60;0.60;;;19.80;42.10;;;;;;5094357;28;20063;-10
2022/12/08 02:11:13;;;;;;;0.65;0.63;;;19.80;42.10;;;;;;5094461;28;20078;-9
2022/12/08 02:13:41;;;;;;;0.60;0.60;;;19.80;42.10;;;;;;5094779;28;20065;-9
2022/12/08 02:16:33;;;;;;;0.70;0.70;;;19.80;42.10;;;;;;5094339;28;20051;-9
2022/12/08 02:19:28;;;;;;;0.63;0.63;;;19.80;42.10;;;;;;5094016;28;20069;-10
2022/12/08 02:22:22;;;;;;;0.60;0.60;;;19.80;42.10;;;;;;5094141;28;20054;-9
2022/12/08 02:25:00;;;;;;;0.57;0.57;;;19.80;42.10;;;;;;5093843;28;20044;-9
2022/12/08 02:27:35;;;;;;;0.60;0.60;;;19.80;42.10;;;;;;5093823;28;20405;-9
2022/12/08 02:30:10;;;;;;;0.57;0.57;;;19.80;42.10;;;;;;5093929;28;20124;-9
2022/12/08 02:33:03;;;;;;;1.08;0.50;;;19.80;42.10;;;;;;5093821;28;20108;-9
2022/12/08 02:35:51;;;;;;;0.80;0.80;;;19.80;42.10;;;;;;5094487;28;20424;-9
2022/12/08 02:38:34;;;;;;;0.68;0.60;;;19.80;42.10;;;;;;5093694;28;20484;-9
2022/12/08 02:41:40;;;;;;;0.90;0.80;;;19.80;42.10;;;;;;5093927;28;20473;-9
2022/12/08 02:44:17;;;;;;;1.00;0.90;;;19.80;42.10;;;;;;5093835;28;20486;-9
2022/12/08 02:46:57;;;;;;;0.63;0.63;;;19.80;42.10;;;;;;5093823;28;20048;-9
2022/12/08 02:49:33;;;;;;;0.50;0.50;;;19.80;42.10;;;;;;5093570;28;20048;-9
2022/12/08 02:52:12;;;;;;;0.77;0.60;;;19.80;42.10;;;;;;5093734;28;20051;-9
2022/12/08 02:54:45;;;;;;;0.90;0.85;;;19.90;42.10;;;;;;5073674;28;20135;-9
2022/12/08 02:57:36;;;;;;;1.05;0.77;;;19.80;42.10;;;;;;5093679;28;20052;-9
2022/12/08 03:00:12;;;;;;;1.00;0.70;;;19.80;42.10;;;;;;5093684;28;20524;-9
2022/12/08 03:03:02;;;;;;;0.93;0.70;;;19.80;42.10;;;;;;5093565;28;20059;-9
2022/12/08 03:05:34;;;;;;;0.68;0.68;;;19.80;42.10;;;;;;5093777;28;20086;-10
2022/12/08 03:08:17;;;;;;;0.55;0.55;;;19.80;42.00;;;;;;5093313;28;20098;-9
2022/12/08 03:10:54;;;;;;;0.70;0.63;;;19.80;42.10;;;;;;5093454;28;20455;-9
2022/12/08 03:13:24;;;;;;;1.15;0.73;;;19.80;42.10;;;;;;5094104;28;20465;-9
2022/12/08 03:15:51;;;;;;;0.65;0.57;;;19.80;42.10;;;;;;5093397;28;20556;-9
2022/12/08 03:18:21;;;;;;;0.70;0.70;;;19.80;42.10;;;;;;5093278;28;20412;-9
2022/12/08 03:20:48;;;;;;;0.77;0.70;;;19.90;42.10;;;;;;5093625;28;20077;-9
2022/12/08 03:23:17;;;;;;;0.98;0.75;;;19.80;42.00;;;;;;5075331;28;20143;-9
2022/12/08 03:25:52;;;;;;;0.63;0.60;;;19.80;42.00;;;;;;5093292;28;20056;-9
2022/12/08 03:28:17;;;;;;;0.80;0.80;;;19.80;42.00;;;;;;5093018;28;20477;-9
2022/12/08 03:30:46;;;;;;;0.80;0.70;;;19.90;42.10;;;;;;5093246;28;20112;-9
2022/12/08 03:33:23;;;;;;;0.68;0.68;;;19.90;42.00;;;;;;5093643;28;20055;-9
2022/12/08 03:35:50;;;;;;;0.98;0.88;;;19.80;42.00;;;;;;5092691;28;20061;-9
2022/12/08 03:38:16;;;;;;;0.55;0.55;;;19.80;42.00;;;;;;5093301;28;20047;-9
2022/12/08 03:40:43;;;;;;;0.70;0.70;;;19.80;42.00;;;;;;5093011;28;20409;-9
2022/12/08 03:43:09;;;;;;;0.60;0.60;;;19.90;42.00;;;;;;5092789;28;20139;-9
2022/12/08 03:45:34;;;;;;;0.55;0.50;;;19.90;42.60;;;;;;5092874;28;20537;-9
2022/12/08 03:48:00;;;;;;;0.60;0.60;;;19.80;42.00;;;;;;5092753;28;20059;-9
2022/12/08 03:50:26;;;;;;;0.57;0.57;;;19.90;42.00;;;;;;5092832;28;20076;-9
2022/12/08 03:52:51;;;;;;;0.77;0.60;;;19.80;42.50;;;;;;5092855;28;20125;-9
2022/12/08 03:55:17;;;;;;;0.90;0.70;;;19.90;42.00;;;;;;5092756;28;20056;-9
2022/12/08 03:57:43;;;;;;;0.73;0.50;;;19.80;42.00;;;;;;5092661;28;20060;-9
2022/12/08 04:00:14;;;;;;;0.85;0.70;;;19.90;42.00;;;;;;5092551;28;20556;-9
2022/12/08 04:02:39;;;;;;;0.60;0.60;;;19.80;42.00;;;;;;5092538;28;20080;-9
2022/12/08 04:05:05;;;;;;;0.85;0.70;;;19.80;42.00;;;;;;5092757;28;20383;-9
2022/12/08 04:07:31;;;;;;;0.55;0.40;;;19.90;42.00;;;;;;5092384;28;20429;-9
2022/12/08 04:09:56;;;;;;;0.60;0.55;;;19.80;42.00;;;;;;5092359;28;20062;-9
2022/12/08 04:12:22;;;;;;;0.70;0.70;;;19.80;42.00;;;;;;5092539;28;20055;-9
2022/12/08 04:14:48;;;;;;;0.70;0.70;;;19.90;42.00;;;;;;5092554;28;20486;-10
2022/12/08 04:17:14;;;;;;;0.60;0.60;;;19.90;42.00;;;;;;5092397;28;20052;-9
2022/12/08 04:19:39;;;;;;;1.48;0.60;;;19.80;41.90;;;;;;5092321;28;20067;-9
2022/12/08 04:22:06;;;;;;;0.80;0.60;;;19.90;41.90;;;;;;5092426;28;20497;-9
2022/12/08 04:24:31;;;;;;;0.73;0.70;;;19.90;42.00;;;;;;5092392;28;20477;-9
2022/12/08 04:26:57;;;;;;;0.60;0.60;;;19.90;42.00;;;;;;5092582;28;20097;-9
2022/12/08 04:29:23;;;;;;;0.55;0.55;;;19.80;42.00;;;;;;5092214;28;20048;-9
2022/12/08 04:31:48;;;;;;;0.68;0.68;;;19.90;42.00;;;;;;5092648;28;20501;-9
2022/12/08 04:34:14;;;;;;;1.17;0.60;;;19.90;42.00;;;;;;5092785;28;20091;-9
2022/12/08 04:36:39;;;;;;;0.73;0.60;;;19.80;41.90;;;;;;5092279;28;20555;-9
2022/12/08 04:39:05;;;;;;;0.57;0.57;;;19.80;41.90;;;;;;5092211;28;20540;-9
2022/12/08 04:41:31;;;;;;;0.80;0.70;;;19.90;41.90;;;;;;5092221;28;20397;-9
2022/12/08 04:43:57;;;;;;;0.73;0.60;;;19.80;41.90;;;;;;5092077;28;20417;-9
2022/12/08 04:46:22;;;;;;;0.70;0.60;;;19.90;41.90;;;;;;5092079;28;20120;-9
2022/12/08 04:48:48;;;;;;;0.70;0.70;;;19.80;41.90;;;;;;5093820;28;20048;-9
2022/12/08 04:51:16;;;;;;;0.60;0.60;;;19.80;41.90;;;;;;5095573;28;20063;-9
2022/12/08 04:53:42;;;;;;;0.68;0.68;;;19.80;41.90;;;;;;5095680;28;20047;-9
2022/12/08 04:56:16;;;;;;;0.70;0.70;;;19.80;41.90;;;;;;5095632;28;20467;-9
2022/12/08 04:58:42;;;;;;;0.47;0.47;;;19.80;41.90;;;;;;5095510;28;20109;-9
2022/12/08 05:01:08;;;;;;;0.60;0.60;;;19.80;41.90;;;;;;5095540;28;20052;-9
2022/12/08 05:03:33;;;;;;;0.50;0.50;;;19.90;42.00;;;;;;5095384;28;20051;-9
2022/12/08 05:06:00;;;;;;;0.60;0.60;;;19.80;41.90;;;;;;5095493;28;20055;-9
2022/12/08 05:08:26;;;;;;;0.60;0.60;;;19.80;41.90;;;;;;5095222;28;20512;-9
2022/12/08 05:10:51;;;;;;;0.65;0.65;;;19.80;41.90;;;;;;5095412;28;20047;-9
2022/12/08 05:13:17;;;;;;;0.80;0.70;;;19.80;41.90;;;;;;5095650;28;20052;-9
2022/12/08 05:15:42;;;;;;;0.55;0.55;;;19.80;41.90;;;;;;5095170;28;20048;-9
2022/12/08 05:18:08;;;;;;;0.63;0.63;;;19.80;41.90;;;;;;5095101;28;20047;-9
2022/12/08 05:20:34;;;;;;;0.60;0.60;;;19.80;41.90;;;;;;5095239;28;20079;-9
2022/12/08 05:23:00;;;;;;;0.60;0.60;;;19.80;41.90;;;;;;5095214;28;20075;-9
2022/12/08 05:25:26;;;;;;;0.60;0.60;;;19.80;41.90;;;;;;5095012;28;20451;-9
2022/12/08 05:27:51;;;;;;;0.50;0.50;;;19.80;42.50;;;;;;5094891;28;20056;-9
2022/12/08 05:30:17;;;;;;;0.60;0.60;;;19.80;41.90;;;;;;5095064;28;20128;-9
2022/12/08 05:32:43;;;;;;;0.50;0.50;;;19.80;42.00;;;;;;5094991;28;20113;-9
2022/12/08 05:35:09;;;;;;;0.40;0.40;;;19.80;42.00;;;;;;5094894;28;20481;-9
2022/12/08 05:37:34;;;;;;;0.80;0.60;;;19.80;41.90;;;;;;5094734;28;20062;-9
2022/12/08 05:40:00;;;;;;;1.00;0.90;;;19.80;41.90;;;;;;5095076;28;20420;-9
2022/12/08 05:42:25;;;;;;;0.77;0.52;;;19.80;41.90;;;;;;5095036;28;20084;-9
2022/12/08 05:44:52;;;;;;;0.60;0.60;;;19.80;41.90;;;;;;5094937;28;20101;-9
2022/12/08 05:47:17;;;;;;;0.68;0.68;;;19.80;41.90;;;;;;5094721;28;20449;-10
2022/12/08 05:49:43;;;;;;;0.70;0.60;;;19.80;41.90;;;;;;5094720;28;20083;-9
2022/12/08 05:52:09;;;;;;;0.65;0.60;;;19.80;42.00;;;;;;5094666;28;20055;-9
2022/12/08 05:54:35;;;;;;;0.75;0.60;;;19.80;42.00;;;;;;5094926;28;20055;-9
2022/12/08 05:57:00;;;;;;;0.55;0.55;;;19.80;42.00;;;;;;5094475;28;20052;-10
2022/12/08 05:59:26;;;;;;;0.55;0.55;;;19.80;42.00;;;;;;5093916;28;20486;-9
2022/12/08 06:01:52;;;;;;;0.80;0.80;;;19.80;42.00;;;;;;5094508;28;20113;-9
2022/12/08 06:04:17;;;;;;;0.50;0.50;;;19.80;42.00;;;;;;5094388;28;20500;-9
2022/12/08 06:06:43;;;;;;;0.50;0.50;;;19.80;42.00;;;;;;5094345;28;20103;-9
2022/12/08 06:09:09;;;;;;;0.70;0.55;;;19.80;42.00;;;;;;5094509;28;20047;-9
2022/12/08 06:11:35;;;;;;;0.60;0.60;;;19.80;42.00;;;;;;5094657;28;20198;-9
2022/12/08 06:14:02;;;;;;;0.60;0.60;;;19.80;42.00;;;;;;5094359;28;20048;-9
2022/12/08 06:16:28;;;;;;;0.60;0.60;;;19.80;42.00;;;;;;5074998;28;20059;-9
2022/12/08 06:18:55;;;;;;;0.50;0.50;;;19.80;42.00;;;;;;5094317;28;20418;-9
2022/12/08 06:21:20;;;;;;;0.77;0.68;;;19.80;42.00;;;;;;5094160;28;20048;-9
2022/12/08 06:23:48;;;;;;;0.75;0.40;;;19.80;42.00;;;;;;5094379;28;20378;-9
2022/12/08 06:26:15;;;;;;;0.70;0.50;;;19.80;41.90;;;;;;5094088;28;20078;-9
2022/12/08 06:28:41;;;;;;;0.70;0.70;;;19.80;41.90;;;;;;5094142;28;20118;-9
2022/12/08 06:31:09;;;;;;;0.68;0.60;;;19.80;41.90;;;;;;5094308;28;20436;-9
2022/12/08 06:33:36;;;;;;;0.60;0.60;;;19.80;41.90;;;;;;5094014;28;20048;-9
2022/12/08 06:36:04;;;;;;;0.68;0.60;;;19.80;42.50;;;;;;5094043;28;20496;-9
2022/12/08 06:38:29;;;;;;;0.60;0.60;;;19.80;42.00;;;;;;5093729;28;20063;-9
2022/12/08 06:40:56;;;;;;;1.15;0.68;;;19.80;42.00;;;;;;5093853;28;20417;-9
2022/12/08 06:43:23;;;;;;;0.50;0.50;;;19.80;42.00;;;;;;5093702;28;20157;-9
2022/12/08 06:45:49;;;;;;;0.95;0.68;;;19.80;41.90;;;;;;5093836;28;20399;-9
2022/12/08 06:48:15;;;;;;;0.60;0.60;;;19.80;41.90;;;;;;5093644;28;20040;-9
2022/12/08 06:50:41;;;;;;;0.50;0.50;;;19.80;42.00;;;;;;5093784;28;20068;-9
2022/12/08 06:53:07;;;;;;;0.60;0.57;;;19.80;41.90;;;;;;5093928;28;20090;-9
2022/12/08 06:55:32;;;;;;;0.60;0.60;;;19.80;41.90;;;;;;5093905;28;20048;-9
2022/12/08 06:57:59;;;;;;;0.68;0.65;;;19.80;42.00;;;;;;5093642;28;20158;-9
2022/12/08 07:00:25;;;;;;;0.57;0.55;;;19.80;42.00;;;;;;5092422;28;20051;-9
2022/12/08 07:02:50;;;;;;;0.60;0.60;;;19.80;41.90;;;;;;5093575;28;20482;-9
2022/12/08 07:05:17;;;;;;;1.17;0.60;;;19.80;42.00;;;;;;5093360;28;20059;-9
2022/12/08 07:07:43;;;;;;;0.65;0.60;;;19.80;41.90;;;;;;5093314;28;20047;-9
2022/12/08 07:10:09;;;;;;;0.90;0.80;;;19.90;42.00;;;;;;5092494;28;20056;-9
2022/12/08 07:12:34;;;;;;;0.65;0.60;;;19.90;42.00;;;;;;5092227;28;20066;-9
2022/12/08 07:15:00;;;;;;;1.15;0.80;;;19.80;42.00;;;;;;5092802;28;20044;-9
2022/12/08 07:17:26;;;;;;;1.25;0.68;;;19.80;42.00;;;;;;5073678;28;20063;-9
2022/12/08 07:19:52;;;;;;;1.05;0.80;;;19.90;42.00;;;;;;5092809;28;20199;-9
2022/12/08 07:22:17;;;;;;;0.73;0.73;;;19.90;42.00;;;;;;5093096;28;20064;-9
2022/12/08 07:24:44;;;;;;;0.77;0.63;;;19.80;42.00;;;;;;5092849;28;20068;-9
2022/12/08 07:27:09;;;;;;;0.85;0.75;;;19.80;41.90;;;;;;5092900;28;20056;-9
2022/12/08 07:29:35;;;;;;;1.00;0.90;;;19.90;42.00;;;;;;5092676;28;20150;-11
2022/12/08 07:32:00;;;;;;;1.73;0.68;;;19.80;42.00;;;;;;5093078;28;20162;-11
2022/12/08 07:34:26;;;;;;;2.28;0.82;;;19.90;42.00;;;;;;5093311;28;20230;-11
2022/12/08 07:36:52;;;;;;;1.17;0.70;;;19.90;42.00;;;;;;5092932;28;20063;-11
2022/12/08 07:39:17;;;;;;;1.80;0.75;;;19.80;41.90;;;;;;5092844;28;20055;-11
2022/12/08 07:41:43;;;;;;;1.15;0.73;;;19.80;42.00;;;;;;5092806;28;20087;-11
2022/12/08 07:44:10;;;;;;;2.80;0.93;;;19.80;41.90;;;;;;5093035;28;20048;-11
2022/12/08 07:46:35;;;;;;;2.38;0.90;;;19.90;42.60;;;;;;5092711;28;20063;-11
2022/12/08 07:49:01;;;;;;;3.45;1.08;;;19.80;42.00;;;;;;5092614;28;20060;-11
2022/12/08 07:51:27;;;;;;;1.58;0.90;;;19.90;42.00;;;;;;5093113;28;20135;-11
2022/12/08 07:53:52;;;;;;;3.53;0.90;;;19.80;42.00;;;;;;5092599;28;20048;-11
2022/12/08 07:56:19;;;;;;;2.58;0.90;;;19.80;41.90;;;;;;5092664;28;20382;-11
2022/12/08 07:58:45;;;;;;;3.10;1.17;;;19.80;42.00;;;;;;5092584;28;20489;-11
2022/12/08 08:01:28;;;;;;;3.55;1.10;;;19.90;42.00;;;;;;5092487;28;20055;-11
2022/12/08 08:03:56;;;;;;;3.38;1.00;;;19.80;41.90;;;;;;5092573;28;20059;-11
2022/12/08 08:06:22;;;;;;;4.32;1.15;;;19.80;41.90;;;;;;5092475;28;20044;-11
2022/12/08 08:08:47;;;;;;;6.13;1.08;;;19.90;42.50;;;;;;5092477;28;20044;-11
2022/12/08 08:11:13;;;;;;;3.72;0.80;;;19.90;42.00;;;;;;5092725;28;20197;-11
2022/12/08 08:13:39;;;;;;;1.05;0.80;;;19.90;42.00;;;;;;5092471;28;20512;-11
2022/12/08 08:16:06;;;;;;;2.80;0.98;;;19.80;42.00;;;;;;5092365;28;20110;-11
2022/12/08 08:18:34;;;;;;;5.57;1.13;;;19.80;42.00;;;;;;5092429;28;20404;-11
2022/12/08 08:21:00;;;;;;;2.05;0.82;;;19.80;42.00;;;;;;5092449;28;20131;-11
2022/12/08 08:23:26;;;;;;;2.55;0.90;;;19.90;42.00;;;;;;5076751;28;20082;-11
2022/12/08 08:25:53;;;;;;;3.92;1.50;;;19.90;42.00;;;;;;5096337;28;20059;-11
2022/12/08 08:28:19;;;;;;;6.38;1.58;;;19.80;42.00;;;;;;5095466;28;20058;-11
2022/12/08 08:30:46;;;;;;;1.58;0.98;;;19.80;42.00;;;;;;5095617;28;20517;-11
2022/12/08 08:33:12;;;;;;;2.40;1.35;;;19.80;42.00;;;;;;5094206;28;20074;-12
2022/12/08 08:35:38;;;;;;;2.25;1.20;;;19.80;42.00;;;;;;5093820;28;20048;-11
2022/12/08 08:38:04;;;;;;;4.65;1.20;;;19.90;42.00;;;;;;5095324;28;20076;-11
2022/12/08 08:40:30;;;;;;;4.03;1.13;;;19.90;42.10;;;;;;5094178;28;20501;-12
2022/12/08 08:42:55;;;;;;;5.20;1.25;;;19.90;42.20;;;;;;5095644;28;20497;-11
2022/12/08 08:45:21;;;;;;;6.03;1.42;;;19.90;42.10;;;;;;5093251;28;20052;-12
2022/12/08 08:47:47;;;;;;;8.45;1.20;;;19.90;42.30;;;;;;5092312;28;20052;-12
2022/12/08 08:50:12;;;;;;;8.95;1.50;;;19.90;42.30;;;;;;5092659;28;20114;-12
2022/12/08 08:52:38;;;;;;;2.92;1.27;;;20.00;42.30;;;;;;5092927;28;20155;-12
2022/12/08 08:55:04;;;;;;;10.10;1.63;;;20.00;42.00;;;;;;5093546;28;20055;-12
2022/12/08 08:57:30;;;;;;;5.63;2.15;;;20.00;41.20;;;;;;5093818;28;20048;-12
2022/12/08 08:59:55;;;;;;;6.32;1.90;;;20.00;41.30;;;;;;5094364;28;20128;-12
2022/12/08 09:02:21;;;;;;;4.30;1.65;;;20.00;41.30;;;;;;5093858;28;20405;-11
2022/12/08 09:04:47;;;;;;;8.40;1.67;;;20.00;41.30;;;;;;5094949;28;20044;-11
2022/12/08 09:07:13;;;;;;;9.15;1.85;;;20.10;41.40;;;;;;5095264;28;20048;-11
2022/12/08 09:09:38;;;;;;;5.10;1.45;;;20.10;42.00;;;;;;5094911;28;20130;-11
2022/12/08 09:12:05;;;;;;;7.00;1.77;;;20.10;41.40;;;;;;5094358;28;20071;-12
2022/12/08 09:14:31;;;;;;;5.25;1.38;;;20.10;41.40;;;;;;5094208;28;20429;-12
2022/12/08 09:16:57;;;;;;;3.95;1.52;;;20.10;41.40;;;;;;5057802;28;20059;-11
2022/12/08 09:19:24;;;;;;;6.20;1.42;;;20.10;41.50;;;;;;5094768;28;20451;-11
2022/12/08 09:21:50;;;;;;;5.93;1.88;;;20.10;41.40;;;;;;5090764;28;20131;-11
2022/12/08 09:24:16;;;;;;;8.15;1.50;;;20.10;41.40;;;;;;5094130;28;20548;-12
2022/12/08 09:26:43;;;;;;;9.32;1.98;;;20.10;41.50;;;;;;5094748;28;20488;-11
2022/12/08 09:29:09;;;;;;;3.58;1.67;;;20.10;41.40;;;;;;5093137;28;20390;-12
2022/12/08 09:31:37;;;;;;;4.32;1.45;;;20.10;41.40;;;;;;5094235;28;20051;-12
2022/12/08 09:34:04;;;;;;;8.27;1.63;;;20.10;41.40;;;;;;5093308;28;20056;-12
2022/12/08 09:36:30;;;;;;;5.65;1.58;;;20.10;41.90;;;;;;5093060;28;20139;-11
2022/12/08 09:38:56;;;;;;;6.05;1.58;;;20.10;41.40;;;;;;5093641;28;20052;-10
2022/12/08 09:41:28;;;;;;;4.90;1.25;;;20.10;41.40;;;;;;5094412;28;20059;-10
2022/12/08 09:44:03;;;;;;;11.82;1.60;;;20.10;41.40;;;;;;5094220;28;20048;-11
2022/12/08 09:46:31;;;;;;;5.97;1.50;;;20.10;41.50;;;;;;5094488;28;20485;-11
2022/12/08 09:48:59;;;;;;;11.00;2.80;;;20.10;41.50;;;;;;5094520;28;20082;-11
2022/12/08 09:51:34;;;;;;;5.95;2.95;;;19.40;37.90;;;;;;5094266;28;20052;-11
2022/12/08 09:54:31;;;;;;;6.25;3.13;;;17.80;39.60;;;;;;5094406;28;20051;-11
2022/12/08 09:57:00;;;;;;;4.95;2.97;;;16.50;40.30;;;;;;5075159;28;20146;-12
2022/12/08 09:59:31;;;;;;;9.05;2.78;;;15.60;42.20;;;;;;5093209;28;20135;-11
2022/12/08 10:01:58;;;;;;;10.30;2.85;;;15.30;43.30;;;;;;5093746;28;20051;-11
2022/12/08 10:04:33;;;;;;;4.88;3.35;;;14.40;44.20;;;;;;5093787;28;20094;-11
2022/12/08 10:07:16;;;;;;;5.72;3.40;;;14.10;44.20;;;;;;5094319;28;20051;-11
2022/12/08 10:10:06;;;;;;;3.17;2.88;;;13.90;44.30;;;;;;5094035;28;20489;-11
2022/12/08 10:12:57;;;;;;;3.20;2.35;;;13.40;46.10;;;;;;5093688;28;20048;-11
2022/12/08 10:15:29;;;;;;;;;;;13.70;46.60;;;;;;5094303;28;20047;-11
2022/12/08 10:17:56;;;;;;;;;;;14.10;45.40;;;;;;5094161;28;19924;-11
2022/12/08 10:20:28;;;;;;;7.15;1.75;;;14.20;45.00;;;;;;5093579;28;19923;-11
2022/12/08 10:23:12;;;;;;;4.45;1.92;;;15.00;47.00;;;;;;5093738;28;20063;-11
2022/12/08 10:26:10;;;;;;;5.65;2.45;;;15.80;45.30;;;;;;5093613;28;20432;-11
2022/12/08 10:28:35;;;;;;;4.57;1.73;;;16.40;44.30;;;;;;5092882;28;20056;-11
2022/12/08 10:31:02;;;;;;;7.40;2.20;;;16.80;43.50;;;;;;5093791;28;20064;-11
2022/12/08 10:33:31;;;;;;;4.97;2.00;;;17.10;43.10;;;;;;5093776;28;20047;-11
2022/12/08 10:36:01;;;;;;;4.03;1.85;;;17.30;42.70;;;;;;5093551;28;20056;-11
2022/12/08 10:38:36;;;;;;;4.05;1.58;;;17.50;42.50;;;;;;5093729;28;20056;-11
2022/12/08 10:41:10;;;;;;;5.03;2.03;;;17.60;42.40;;;;;;5092393;28;20440;-11
2022/12/08 10:43:45;;;;;;;7.22;2.10;;;17.70;42.70;;;;;;5093526;28;20054;-11
2022/12/08 10:46:19;;;;;;;4.05;2.25;;;17.80;42.00;;;;;;5093427;28;20051;-11
2022/12/08 10:48:54;;;;;;;3.95;1.92;;;17.90;42.00;;;;;;5093577;28;20535;-11
2022/12/08 10:51:27;;;;;;;4.35;1.83;;;17.90;41.80;;;;;;5093483;28;20052;-11
2022/12/08 10:53:53;;;;;;;4.80;1.48;;;18.00;41.80;;;;;;5093541;28;20097;-11
2022/12/08 10:56:24;;;;;;;8.32;2.00;;;18.10;41.90;;;;;;5093928;28;20558;-11
2022/12/08 10:59:03;;;;;;;4.07;1.63;;;18.10;41.80;;;;;;5093405;28;20048;-11
2022/12/08 11:01:36;;;;;;;3.03;1.50;;;18.10;41.90;;;;;;5093234;28;20063;-11
2022/12/08 11:04:12;;;;;;;4.72;1.75;;;18.20;41.90;;;;;;5092963;28;20447;-12
2022/12/08 11:06:39;;;;;;;4.80;1.55;;;18.20;41.90;;;;;;5093200;28;20051;-11
2022/12/08 11:09:18;;;;;;;7.03;1.83;;;18.20;41.90;;;;;;5093075;28;20074;-11
2022/12/08 11:12:06;;;;;;;3.50;1.70;;;18.30;41.90;;;;;;5093062;28;20043;-11
2022/12/08 11:14:42;;;;;;;4.72;2.08;;;18.30;41.90;;;;;;5093142;28;20054;-11
2022/12/08 11:17:09;;;;;;;4.38;1.75;;;18.30;41.90;;;;;;5093558;28;20079;-11
2022/12/08 11:19:41;;;;;;;5.35;1.95;;;18.30;42.00;;;;;;5093178;28;20052;-11
2022/12/08 11:22:28;;;;;;;4.53;1.60;;;18.30;42.00;;;;;;5093282;28;20538;-11
2022/12/08 11:25:06;;;;;;;8.65;1.83;;;18.30;42.00;;;;;;5092131;28;20143;-13
2022/12/08 11:27:42;;;;;;;5.80;1.75;;;18.30;42.10;;;;;;5091512;28;20132;-12
2022/12/08 11:30:36;;;;;;;3.20;1.63;;;18.30;42.10;;;;;;5088162;28;20520;-11
2022/12/08 11:33:21;;;;;;;6.10;1.77;;;18.40;42.20;;;;;;5089187;28;20103;-11
2022/12/08 11:35:53;;;;;;;7.50;1.58;;;18.30;42.10;;;;;;5091388;28;20130;-11
2022/12/08 11:38:25;;;;;;;5.00;1.60;;;18.40;42.20;;;;;;5093022;28;20059;-11
2022/12/08 11:41:25;;;;;;;4.13;1.88;;;18.40;42.20;;;;;;5093147;28;20098;-11
2022/12/08 11:44:06;;;;;;;6.50;2.15;;;18.40;42.20;;;;;;5090527;28;20486;-12
2022/12/08 11:46:50;;;;;;;3.20;1.73;;;18.40;42.30;;;;;;5090790;28;20550;-12
2022/12/08 11:49:17;;;;;;;2.40;1.50;;;18.40;42.30;;;;;;5091340;28;20362;-11
2022/12/08 11:51:56;;;;;;;3.40;1.83;;;18.40;42.30;;;;;;5091919;28;20055;-11
2022/12/08 11:54:31;;;;;;;7.22;1.55;;;18.40;42.30;;;;;;5092174;28;20052;-11
2022/12/08 11:56:59;;;;;;;5.03;2.15;;;18.40;42.30;;;;;;5091854;28;20056;-11
2022/12/08 11:59:40;;;;;;;4.18;1.60;;;18.40;42.40;;;;;;5092559;28;20489;-11
2022/12/08 12:02:16;;;;;;;5.15;1.67;;;18.40;42.40;;;;;;5092503;28;20054;-11
2022/12/08 12:05:03;;;;;;;5.70;1.95;;;18.40;42.50;;;;;;5092663;28;20040;-11
2022/12/08 12:08:06;;;;;;;3.92;2.45;;;18.40;43.00;;;;;;5092507;28;20052;-11
2022/12/08 12:11:08;;;;;;;8.02;2.10;;;18.40;43.20;;;;;;5092631;28;20109;-11
2022/12/08 12:14:00;;;;;;;;;;;18.40;43.30;;;;;;5092917;28;20056;-11
2022/12/08 12:17:13;;;;;;;10.63;2.13;;;18.40;43.40;;;;;;5092645;28;19916;-11
2022/12/08 12:19:39;;;;;;;7.15;2.08;;;18.40;43.30;;;;;;5003136;28;20046;-11
2022/12/08 12:22:16;;;;;;;7.25;2.50;;;18.50;43.60;;;;;;5092337;28;20071;-11
2022/12/08 12:24:48;;;;;;;8.68;2.38;;;18.50;44.00;;;;;;5092550;28;20055;-11
2022/12/08 12:27:14;;;;;;;7.68;2.10;;;18.50;44.20;;;;;;5092659;28;20148;-11
2022/12/08 12:29:52;;;;;;;4.75;2.10;;;18.50;43.80;;;;;;5092200;28;20485;-11
2022/12/08 12:32:18;;;;;;;7.22;1.77;;;18.50;43.60;;;;;;5092204;28;20054;-11
2022/12/08 12:34:52;;;;;;;5.55;2.30;;;18.50;43.50;;;;;;5092067;28;20138;-11
2022/12/08 12:37:20;;;;;;;6.70;1.80;;;18.50;43.40;;;;;;5092405;28;20504;-11
2022/12/08 12:39:51;;;;;;;8.80;2.08;;;18.60;43.50;;;;;;5091904;28;20059;-11
2022/12/08 12:42:36;;;;;;;;;;;18.50;43.40;;;;;;5092252;28;20055;-11
2022/12/08 12:45:20;;;;;;;5.25;1.95;;;18.60;43.50;;;;;;5091986;28;19922;-11
2022/12/08 12:48:19;;;;;;;5.55;2.08;;;18.50;43.40;;;;;;5091869;28;20111;-11
2022/12/08 12:50:46;;;;;;;4.63;1.80;;;18.50;43.40;;;;;;5092143;28;20501;-11
2022/12/08 12:53:15;;;;;;;8.25;1.90;;;18.50;43.40;;;;;;5091791;28;20054;-11
2022/12/08 12:55:50;;;;;;;7.88;2.72;;;18.50;43.40;;;;;;5091607;28;20149;-11
2022/12/08 12:58:21;;;;;;;4.82;2.00;;;18.50;43.40;;;;;;5089809;28;20060;-11
2022/12/08 13:00:47;;;;;;;6.18;2.10;;;18.50;43.50;;;;;;5091896;28;20116;-11
2022/12/08 13:03:16;;;;;;;6.95;2.33;;;18.50;43.50;;;;;;5091582;28;20481;-11
2022/12/08 13:05:50;;;;;;;9.00;2.72;;;18.50;43.40;;;;;;5089364;28;20047;-13
2022/12/08 13:08:24;;;;;;;5.03;2.15;;;18.50;43.50;;;;;;5089371;28;20052;-12
2022/12/08 13:11:03;;;;;;;4.22;1.98;;;18.50;43.50;;;;;;5093514;28;20048;-12
2022/12/08 13:13:29;;;;;;;8.32;2.08;;;18.50;43.50;;;;;;5094294;28;20447;-11